Proctor, Montana
Current Conditions -  °F | °C
As of 11:55 AM on Friday 28 Nov 2014 (Local Time) from KGPI Reporting Station
Overcast Overcast  
Wind Chill: 42°   Ceiling: 4300
Heat Index: 46°   Visibility: 10mi
Dew Point: 39°   Wind: 7mph
Humidity: 76%   Direction: 170°S
Pressure: 29.44"   Gusts: NA
Location:  47.92°N, 114.37°W
Report Text: KGPI 281855Z 17006KT 10SM OVC043 08/04 A2944 RMK AO2 SLP975 T00780039
Loading
Personal Weather Stations






























Interactive Weather Map New forecast layout! Learn more

10-Day Weather Forecast

Advertisements
Track Severe Weather on mobile